sensor_id;sensor_type;location;lat;lon;timestamp;pressure;altitude;pressure_sealevel;temperature;humidity
18022;BME280;9136;48.822;7.966;2023-09-19T00:00:37;99857.94;;;16.60;100.00
18022;BME280;9136;48.822;7.966;2023-09-19T00:03:43;99884.56;;;16.73;100.00
18022;BME280;9136;48.822;7.966;2023-09-19T00:06:39;99896.66;;;16.77;100.00
18022;BME280;9136;48.822;7.966;2023-09-19T00:48:14;99874.91;;;16.15;100.00
18022;BME280;9136;48.822;7.966;2023-09-19T00:51:19;99865.16;;;16.15;100.00
18022;BME280;9136;48.822;7.966;2023-09-19T00:54:23;99890.34;;;16.22;100.00
18022;BME280;9136;48.822;7.966;2023-09-19T01:01:33;99880.47;;;15.96;100.00
18022;BME280;9136;48.822;7.966;2023-09-19T01:04:41;99896.66;;;16.06;100.00
18022;BME280;9136;48.822;7.966;2023-09-19T01:12:01;99903.81;;;15.89;100.00
18022;BME280;9136;48.822;7.966;2023-09-19T01:15:55;99902.09;;;15.88;100.00
18022;BME280;9136;48.822;7.966;2023-09-19T01:29:51;99922.50;;;16.16;100.00
18022;BME280;9136;48.822;7.966;2023-09-19T01:40:29;99917.91;;;15.90;100.00
18022;BME280;9136;48.822;7.966;2023-09-19T01:44:12;99929.28;;;16.06;100.00
18022;BME280;9136;48.822;7.966;2023-09-19T01:55:28;99921.94;;;16.25;100.00
18022;BME280;9136;48.822;7.966;2023-09-19T01:58:42;99924.28;;;16.30;100.00
18022;BME280;9136;48.822;7.966;2023-09-19T02:02:11;99954.88;;;16.50;100.00
18022;BME280;9136;48.822;7.966;2023-09-19T02:05:30;99944.47;;;16.47;100.00
18022;BME280;9136;48.822;7.966;2023-09-19T02:09:02;99934.63;;;16.49;100.00
18022;BME280;9136;48.822;7.966;2023-09-19T02:11:57;99940.41;;;16.55;100.00
18022;BME280;9136;48.822;7.966;2023-09-19T02:15:46;99927.63;;;16.48;100.00
18022;BME280;9136;48.822;7.966;2023-09-19T02:18:48;99960.22;;;16.64;100.00
18022;BME280;9136;48.822;7.966;2023-09-19T02:21:54;99958.41;;;16.65;100.00
18022;BME280;9136;48.822;7.966;2023-09-19T02:25:16;99952.72;;;16.56;100.00
18022;BME280;9136;48.822;7.966;2023-09-19T02:28:23;99949.31;;;16.54;100.00
18022;BME280;9136;48.822;7.966;2023-09-19T02:31:59;99949.53;;;16.51;100.00
18022;BME280;9136;48.822;7.966;2023-09-19T02:35:21;99974.03;;;16.55;100.00
18022;BME280;9136;48.822;7.966;2023-09-19T02:38:32;99958.59;;;16.47;100.00
18022;BME280;9136;48.822;7.966;2023-09-19T02:42:17;99951.78;;;16.43;100.00
18022;BME280;9136;48.822;7.966;2023-09-19T02:45:49;99953.28;;;16.47;100.00
18022;BME280;9136;48.822;7.966;2023-09-19T02:49:14;99972.63;;;16.64;100.00
18022;BME280;9136;48.822;7.966;2023-09-19T02:52:34;99963.72;;;16.50;100.00
18022;BME280;9136;48.822;7.966;2023-09-19T02:55:41;99966.94;;;16.55;100.00
18022;BME280;9136;48.822;7.966;2023-09-19T02:59:03;99965.78;;;16.59;100.00
18022;BME280;9136;48.822;7.966;2023-09-19T03:02:22;99989.97;;;16.69;100.00
18022;BME280;9136;48.822;7.966;2023-09-19T03:16:54;99979.25;;;16.56;100.00
18022;BME280;9136;48.822;7.966;2023-09-19T03:20:43;99976.03;;;16.51;100.00
18022;BME280;9136;48.822;7.966;2023-09-19T03:24:26;99991.38;;;16.60;100.00
18022;BME280;9136;48.822;7.966;2023-09-19T03:27:54;99974.22;;;16.52;100.00
18022;BME280;9136;48.822;7.966;2023-09-19T04:23:53;100011.19;;;15.65;100.00
18022;BME280;9136;48.822;7.966;2023-09-19T04:27:02;100000.91;;;15.43;100.00
18022;BME280;9136;48.822;7.966;2023-09-19T04:30:23;100022.25;;;15.56;100.00
18022;BME280;9136;48.822;7.966;2023-09-19T04:33:45;100015.94;;;15.42;100.00
18022;BME280;9136;48.822;7.966;2023-09-19T04:38:12;100036.59;;;15.52;100.00
18022;BME280;9136;48.822;7.966;2023-09-19T05:18:58;100087.13;;;15.31;100.00
18022;BME280;9136;48.822;7.966;2023-09-19T05:22:30;100088.25;;;15.27;100.00
18022;BME280;9136;48.822;7.966;2023-09-19T05:25:34;100084.75;;;15.27;100.00
18022;BME280;9136;48.822;7.966;2023-09-19T05:28:44;100086.69;;;15.23;100.00
18022;BME280;9136;48.822;7.966;2023-09-19T05:31:54;100103.44;;;15.24;100.00
18022;BME280;9136;48.822;7.966;2023-09-19T05:34:49;100112.94;;;15.28;100.00
18022;BME280;9136;48.822;7.966;2023-09-19T05:37:59;100092.56;;;15.12;100.00
18022;BME280;9136;48.822;7.966;2023-09-19T05:40:53;100106.34;;;15.19;100.00
18022;BME280;9136;48.822;7.966;2023-09-19T05:44:39;100092.91;;;15.06;100.00
18022;BME280;9136;48.822;7.966;2023-09-19T05:47:53;100106.13;;;15.06;100.00
18022;BME280;9136;48.822;7.966;2023-09-19T05:51:03;100098.25;;;15.05;100.00
18022;BME280;9136;48.822;7.966;2023-09-19T05:53:57;100105.03;;;15.10;100.00
18022;BME280;9136;48.822;7.966;2023-09-19T05:56:58;100135.91;;;15.27;100.00
18022;BME280;9136;48.822;7.966;2023-09-19T06:00:20;100104.75;;;15.15;100.00
18022;BME280;9136;48.822;7.966;2023-09-19T06:03:26;100108.13;;;15.18;100.00
18022;BME280;9136;48.822;7.966;2023-09-19T06:06:41;100110.41;;;15.25;100.00
18022;BME280;9136;48.822;7.966;2023-09-19T06:10:15;100116.03;;;15.36;100.00
18022;BME280;9136;48.822;7.966;2023-09-19T06:16:48;100152.84;;;15.56;100.00
18022;BME280;9136;48.822;7.966;2023-09-19T06:21:36;100153.16;;;15.50;100.00
18022;BME280;9136;48.822;7.966;2023-09-19T06:23:44;100138.31;;;15.48;100.00
18022;BME280;9136;48.822;7.966;2023-09-19T06:27:05;100164.22;;;15.58;100.00
18022;BME280;9136;48.822;7.966;2023-09-19T06:30:57;100168.50;;;15.61;100.00
18022;BME280;9136;48.822;7.966;2023-09-19T06:42:25;100150.69;;;15.64;100.00
18022;BME280;9136;48.822;7.966;2023-09-19T06:45:26;100177.34;;;15.77;100.00
18022;BME280;9136;48.822;7.966;2023-09-19T06:48:55;100163.25;;;15.92;100.00
18022;BME280;9136;48.822;7.966;2023-09-19T06:56:05;100151.25;;;16.17;100.00
18022;BME280;9136;48.822;7.966;2023-09-19T06:58:59;100160.06;;;16.33;100.00
18022;BME280;9136;48.822;7.966;2023-09-19T07:02:07;100161.81;;;16.48;100.00
18022;BME280;9136;48.822;7.966;2023-09-19T07:05:33;100154.66;;;16.50;100.00
18022;BME280;9136;48.822;7.966;2023-09-19T07:08:31;100152.38;;;16.58;100.00
18022;BME280;9136;48.822;7.966;2023-09-19T07:11:41;100162.69;;;16.79;100.00
18022;BME280;9136;48.822;7.966;2023-09-19T07:14:51;100151.47;;;16.90;100.00
18022;BME280;9136;48.822;7.966;2023-09-19T07:19:24;100151.94;;;16.96;100.00
18022;BME280;9136;48.822;7.966;2023-09-19T07:21:13;100169.00;;;17.06;100.00
18022;BME280;9136;48.822;7.966;2023-09-19T07:24:32;100158.22;;;17.09;100.00
18022;BME280;9136;48.822;7.966;2023-09-19T07:27:59;100162.13;;;17.18;100.00
18022;BME280;9136;48.822;7.966;2023-09-19T07:30:49;100188.00;;;17.43;100.00
18022;BME280;9136;48.822;7.966;2023-09-19T07:33:48;100190.47;;;17.46;100.00
18022;BME280;9136;48.822;7.966;2023-09-19T07:36:48;100166.38;;;17.35;100.00
18022;BME280;9136;48.822;7.966;2023-09-19T07:39:59;100186.88;;;17.47;100.00
18022;BME280;9136;48.822;7.966;2023-09-19T07:46:48;100191.81;;;17.67;100.00
18022;BME280;9136;48.822;7.966;2023-09-19T07:49:41;100186.03;;;17.75;100.00
18022;BME280;9136;48.822;7.966;2023-09-19T07:52:36;100194.00;;;17.89;100.00
18022;BME280;9136;48.822;7.966;2023-09-19T07:55:40;100197.78;;;17.99;100.00
18022;BME280;9136;48.822;7.966;2023-09-19T07:59:23;100199.72;;;18.24;100.00
18022;BME280;9136;48.822;7.966;2023-09-19T08:03:26;100213.22;;;18.48;100.00
18022;BME280;9136;48.822;7.966;2023-09-19T08:05:49;100221.53;;;18.71;100.00
18022;BME280;9136;48.822;7.966;2023-09-19T08:12:42;100216.69;;;18.63;100.00
18022;BME280;9136;48.822;7.966;2023-09-19T08:16:20;100208.88;;;18.74;100.00
18022;BME280;9136;48.822;7.966;2023-09-19T08:23:09;100231.00;;;19.02;100.00
18022;BME280;9136;48.822;7.966;2023-09-19T08:30:55;100241.41;;;18.92;100.00
18022;BME280;9136;48.822;7.966;2023-09-19T08:33:57;100257.19;;;19.08;100.00
18022;BME280;9136;48.822;7.966;2023-09-19T09:14:47;100258.47;;;19.15;100.00
18022;BME280;9136;48.822;7.966;2023-09-19T09:40:17;100240.72;;;19.54;89.76
18022;BME280;9136;48.822;7.966;2023-09-19T09:47:51;100271.56;;;20.33;81.29
18022;BME280;9136;48.822;7.966;2023-09-19T09:54:57;100249.53;;;20.18;88.32
18022;BME280;9136;48.822;7.966;2023-09-19T10:02:21;100251.25;;;20.19;83.74
18022;BME280;9136;48.822;7.966;2023-09-19T10:05:57;100242.84;;;20.36;87.96
18022;BME280;9136;48.822;7.966;2023-09-19T10:09:22;100265.06;;;20.49;83.22
18022;BME280;9136;48.822;7.966;2023-09-19T10:12:27;100244.34;;;20.40;82.17
18022;BME280;9136;48.822;7.966;2023-09-19T10:23:11;100263.09;;;20.51;83.90
18022;BME280;9136;48.822;7.966;2023-09-19T10:26:59;100256.59;;;20.79;82.05
18022;BME280;9136;48.822;7.966;2023-09-19T10:29:54;100239.03;;;20.88;77.78
18022;BME280;9136;48.822;7.966;2023-09-19T10:37:26;100225.22;;;21.40;73.85
18022;BME280;9136;48.822;7.966;2023-09-19T10:40:30;100260.09;;;21.39;72.94
18022;BME280;9136;48.822;7.966;2023-09-19T10:43:44;100253.06;;;20.79;76.35
18022;BME280;9136;48.822;7.966;2023-09-19T10:47:06;100228.78;;;21.86;71.31
18022;BME280;9136;48.822;7.966;2023-09-19T10:50:46;100228.22;;;25.23;51.37
18022;BME280;9136;48.822;7.966;2023-09-19T11:08:35;100248.31;;;27.64;41.54
18022;BME280;9136;48.822;7.966;2023-09-19T11:19:05;100199.53;;;26.25;43.09
18022;BME280;9136;48.822;7.966;2023-09-19T11:22:07;100208.00;;;27.37;42.72
18022;BME280;9136;48.822;7.966;2023-09-19T11:25:44;100198.75;;;25.87;44.16
18022;BME280;9136;48.822;7.966;2023-09-19T11:29:26;100184.78;;;26.82;42.33
18022;BME280;9136;48.822;7.966;2023-09-19T11:32:15;100185.22;;;28.50;39.30
18022;BME280;9136;48.822;7.966;2023-09-19T11:35:49;100207.94;;;27.55;38.95
18022;BME280;9136;48.822;7.966;2023-09-19T11:42:55;100188.66;;;27.50;37.96
18022;BME280;9136;48.822;7.966;2023-09-19T11:46:33;100189.25;;;26.92;38.71
18022;BME280;9136;48.822;7.966;2023-09-19T12:04:02;100169.78;;;27.50;39.04
18022;BME280;9136;48.822;7.966;2023-09-19T12:07:18;100174.28;;;28.76;38.43
18022;BME280;9136;48.822;7.966;2023-09-19T12:11:11;100154.47;;;27.84;38.20
18022;BME280;9136;48.822;7.966;2023-09-19T12:14:56;100174.56;;;29.46;35.55
18022;BME280;9136;48.822;7.966;2023-09-19T12:18:34;100161.59;;;29.25;35.21
18022;BME280;9136;48.822;7.966;2023-09-19T12:22:33;100170.22;;;28.80;35.47
18022;BME280;9136;48.822;7.966;2023-09-19T12:29:26;100163.13;;;27.10;37.68
18022;BME280;9136;48.822;7.966;2023-09-19T12:33:21;100158.34;;;25.97;40.09
18022;BME280;9136;48.822;7.966;2023-09-19T12:43:49;100122.25;;;22.98;49.75
18022;BME280;9136;48.822;7.966;2023-09-19T12:46:45;100144.06;;;22.94;49.71
18022;BME280;9136;48.822;7.966;2023-09-19T12:59:05;100113.16;;;23.72;48.16
18022;BME280;9136;48.822;7.966;2023-09-19T13:18:11;100107.22;;;24.37;44.76
18022;BME280;9136;48.822;7.966;2023-09-19T14:17:03;100072.56;;;23.15;46.73
18022;BME280;9136;48.822;7.966;2023-09-19T14:27:33;100057.69;;;22.80;48.30
18022;BME280;9136;48.822;7.966;2023-09-19T14:30:21;100045.38;;;22.89;49.30
18022;BME280;9136;48.822;7.966;2023-09-19T14:33:14;100057.97;;;22.98;48.95
18022;BME280;9136;48.822;7.966;2023-09-19T14:36:03;100061.25;;;23.11;49.11
18022;BME280;9136;48.822;7.966;2023-09-19T14:38:53;100063.53;;;23.16;48.35
18022;BME280;9136;48.822;7.966;2023-09-19T14:41:44;100050.50;;;23.02;50.23
18022;BME280;9136;48.822;7.966;2023-09-19T14:44:32;100036.06;;;23.24;49.55
18022;BME280;9136;48.822;7.966;2023-09-19T14:47:21;100037.03;;;23.23;49.23
18022;BME280;9136;48.822;7.966;2023-09-19T14:50:12;100037.19;;;23.61;49.32
18022;BME280;9136;48.822;7.966;2023-09-19T14:53:01;100027.91;;;23.75;49.26
18022;BME280;9136;48.822;7.966;2023-09-19T14:55:49;100026.25;;;24.03;47.30
18022;BME280;9136;48.822;7.966;2023-09-19T14:58:38;100055.34;;;24.46;46.69
18022;BME280;9136;48.822;7.966;2023-09-19T15:01:26;100026.25;;;24.32;46.54
18022;BME280;9136;48.822;7.966;2023-09-19T15:04:14;100036.06;;;24.61;46.94
18022;BME280;9136;48.822;7.966;2023-09-19T15:07:04;100033.03;;;24.36;46.85
18022;BME280;9136;48.822;7.966;2023-09-19T15:09:54;100017.59;;;24.28;45.51
18022;BME280;9136;48.822;7.966;2023-09-19T15:12:42;100022.25;;;24.55;45.55
18022;BME280;9136;48.822;7.966;2023-09-19T15:15:31;100034.16;;;24.34;45.67
18022;BME280;9136;48.822;7.966;2023-09-19T15:18:21;100034.41;;;24.11;47.02
18022;BME280;9136;48.822;7.966;2023-09-19T15:21:09;100030.44;;;23.77;47.72
18022;BME280;9136;48.822;7.966;2023-09-19T15:23:59;100025.22;;;23.65;47.98
18022;BME280;9136;48.822;7.966;2023-09-19T15:26:47;100011.41;;;23.99;47.89
18022;BME280;9136;48.822;7.966;2023-09-19T15:29:38;100011.94;;;24.22;46.44
18022;BME280;9136;48.822;7.966;2023-09-19T15:32:32;100001.03;;;24.62;46.35
18022;BME280;9136;48.822;7.966;2023-09-19T15:35:20;100017.75;;;24.46;47.31
18022;BME280;9136;48.822;7.966;2023-09-19T15:38:08;99999.09;;;24.45;47.79
18022;BME280;9136;48.822;7.966;2023-09-19T15:40:59;100020.31;;;24.38;46.99
18022;BME280;9136;48.822;7.966;2023-09-19T15:43:47;100001.09;;;24.43;46.94
18022;BME280;9136;48.822;7.966;2023-09-19T15:46:37;99998.81;;;24.48;47.50
18022;BME280;9136;48.822;7.966;2023-09-19T15:49:25;100000.94;;;23.86;48.74
18022;BME280;9136;48.822;7.966;2023-09-19T15:52:14;100020.63;;;23.47;50.01
18022;BME280;9136;48.822;7.966;2023-09-19T15:55:05;100017.72;;;23.19;51.53
18022;BME280;9136;48.822;7.966;2023-09-19T15:57:55;100014.44;;;23.16;51.78
18022;BME280;9136;48.822;7.966;2023-09-19T16:00:46;100011.13;;;22.93;52.64
18022;BME280;9136;48.822;7.966;2023-09-19T16:03:34;99997.16;;;22.89;52.48
18022;BME280;9136;48.822;7.966;2023-09-19T16:06:23;100020.34;;;23.09;51.64
18022;BME280;9136;48.822;7.966;2023-09-19T16:09:12;99988.84;;;22.92;53.21
18022;BME280;9136;48.822;7.966;2023-09-19T16:12:01;99999.72;;;23.40;50.43
18022;BME280;9136;48.822;7.966;2023-09-19T16:14:50;99986.88;;;23.54;50.03
18022;BME280;9136;48.822;7.966;2023-09-19T16:17:38;100002.47;;;23.60;50.44
18022;BME280;9136;48.822;7.966;2023-09-19T16:20:26;99987.47;;;23.48;50.88
18022;BME280;9136;48.822;7.966;2023-09-19T16:23:15;100006.44;;;23.75;51.12
18022;BME280;9136;48.822;7.966;2023-09-19T16:26:03;99995.72;;;23.65;50.35
18022;BME280;9136;48.822;7.966;2023-09-19T16:28:53;99979.69;;;23.54;50.95
18022;BME280;9136;48.822;7.966;2023-09-19T16:31:44;99996.66;;;23.55;51.50
18022;BME280;9136;48.822;7.966;2023-09-19T16:34:32;99991.28;;;23.45;52.52
18022;BME280;9136;48.822;7.966;2023-09-19T16:37:20;99993.59;;;23.19;54.10
18022;BME280;9136;48.822;7.966;2023-09-19T16:40:10;99999.69;;;22.91;55.33
18022;BME280;9136;48.822;7.966;2023-09-19T16:43:01;99999.38;;;22.84;58.46
18022;BME280;9136;48.822;7.966;2023-09-19T16:45:52;100001.66;;;22.89;57.79
18022;BME280;9136;48.822;7.966;2023-09-19T16:48:50;99985.81;;;22.55;55.72
18022;BME280;9136;48.822;7.966;2023-09-19T16:51:37;100006.72;;;22.40;57.83
18022;BME280;9136;48.822;7.966;2023-09-19T16:54:28;100003.16;;;22.19;58.46
18022;BME280;9136;48.822;7.966;2023-09-19T16:57:16;100020.00;;;22.10;59.80
18022;BME280;9136;48.822;7.966;2023-09-19T17:00:05;100008.59;;;21.96;61.22
18022;BME280;9136;48.822;7.966;2023-09-19T17:02:54;100010.94;;;21.90;60.58
18022;BME280;9136;48.822;7.966;2023-09-19T17:05:44;100001.56;;;21.63;61.91
18022;BME280;9136;48.822;7.966;2023-09-19T17:08:33;100007.53;;;21.56;63.84
18022;BME280;9136;48.822;7.966;2023-09-19T17:11:21;100003.91;;;21.46;64.83
18022;BME280;9136;48.822;7.966;2023-09-19T17:14:13;100023.59;;;21.45;65.80
18022;BME280;9136;48.822;7.966;2023-09-19T17:17:02;99998.22;;;21.17;67.68
18022;BME280;9136;48.822;7.966;2023-09-19T17:19:50;99987.41;;;21.07;68.66
18022;BME280;9136;48.822;7.966;2023-09-19T17:22:40;99997.00;;;20.98;69.78
18022;BME280;9136;48.822;7.966;2023-09-19T17:25:28;100007.44;;;20.90;71.23
18022;BME280;9136;48.822;7.966;2023-09-19T17:28:17;99987.78;;;20.80;71.18
18022;BME280;9136;48.822;7.966;2023-09-19T17:31:09;100010.59;;;20.73;72.39
18022;BME280;9136;48.822;7.966;2023-09-19T17:33:58;100018.25;;;20.66;73.96
18022;BME280;9136;48.822;7.966;2023-09-19T17:36:46;100010.69;;;20.60;73.22
18022;BME280;9136;48.822;7.966;2023-09-19T17:39:35;100005.69;;;20.55;75.20
18022;BME280;9136;48.822;7.966;2023-09-19T17:42:26;100003.13;;;20.43;75.56
18022;BME280;9136;48.822;7.966;2023-09-19T17:45:15;100009.53;;;20.40;77.55
18022;BME280;9136;48.822;7.966;2023-09-19T17:48:04;100018.38;;;20.29;78.30
18022;BME280;9136;48.822;7.966;2023-09-19T17:50:59;100008.72;;;20.16;80.76
18022;BME280;9136;48.822;7.966;2023-09-19T17:53:47;100021.56;;;20.11;82.68
18022;BME280;9136;48.822;7.966;2023-09-19T17:56:37;100018.09;;;19.97;84.06
18022;BME280;9136;48.822;7.966;2023-09-19T17:59:26;100017.50;;;19.94;86.91
18022;BME280;9136;48.822;7.966;2023-09-19T18:02:14;100028.41;;;19.91;87.12
18022;BME280;9136;48.822;7.966;2023-09-19T18:05:03;100004.19;;;19.70;87.30
18022;BME280;9136;48.822;7.966;2023-09-19T18:07:51;100039.88;;;19.80;88.46
18022;BME280;9136;48.822;7.966;2023-09-19T18:10:40;100026.06;;;19.62;89.41
18022;BME280;9136;48.822;7.966;2023-09-19T18:13:29;100058.00;;;19.75;89.12
18022;BME280;9136;48.822;7.966;2023-09-19T18:16:17;100035.34;;;19.57;90.15
18022;BME280;9136;48.822;7.966;2023-09-19T18:19:05;100052.00;;;19.60;90.37
18022;BME280;9136;48.822;7.966;2023-09-19T18:21:53;100062.19;;;19.66;91.59
18022;BME280;9136;48.822;7.966;2023-09-19T18:24:41;100062.66;;;19.60;92.61
18022;BME280;9136;48.822;7.966;2023-09-19T18:27:29;100042.75;;;19.40;93.28
18022;BME280;9136;48.822;7.966;2023-09-19T18:30:19;100043.91;;;19.36;94.72
18022;BME280;9136;48.822;7.966;2023-09-19T18:33:07;100065.94;;;19.38;95.60
18022;BME280;9136;48.822;7.966;2023-09-19T18:36:00;100069.38;;;19.28;98.64
18022;BME280;9136;48.822;7.966;2023-09-19T18:38:49;100070.03;;;19.19;98.53
18022;BME280;9136;48.822;7.966;2023-09-19T18:41:37;100072.50;;;19.09;100.00
18022;BME280;9136;48.822;7.966;2023-09-19T18:44:26;100055.25;;;18.89;100.00
18022;BME280;9136;48.822;7.966;2023-09-19T18:47:15;100047.06;;;18.67;100.00
18022;BME280;9136;48.822;7.966;2023-09-19T18:50:10;100058.88;;;18.63;100.00
18022;BME280;9136;48.822;7.966;2023-09-19T18:53:14;100053.09;;;18.56;100.00
18022;BME280;9136;48.822;7.966;2023-09-19T18:56:15;100052.75;;;18.48;100.00
18022;BME280;9136;48.822;7.966;2023-09-19T18:59:04;100059.25;;;18.44;100.00
18022;BME280;9136;48.822;7.966;2023-09-19T19:01:55;100065.31;;;18.46;100.00
18022;BME280;9136;48.822;7.966;2023-09-19T19:04:46;100049.31;;;18.33;100.00
18022;BME280;9136;48.822;7.966;2023-09-19T19:07:34;100055.94;;;18.27;100.00
18022;BME280;9136;48.822;7.966;2023-09-19T19:10:27;100058.19;;;18.34;100.00
18022;BME280;9136;48.822;7.966;2023-09-19T19:13:18;100076.38;;;18.40;100.00
18022;BME280;9136;48.822;7.966;2023-09-19T19:16:06;100092.03;;;18.44;100.00
18022;BME280;9136;48.822;7.966;2023-09-19T19:18:57;100076.97;;;18.30;100.00
18022;BME280;9136;48.822;7.966;2023-09-19T19:21:46;100063.22;;;18.11;100.00
18022;BME280;9136;48.822;7.966;2023-09-19T19:24:34;100093.03;;;18.16;100.00
18022;BME280;9136;48.822;7.966;2023-09-19T19:27:22;100075.91;;;17.93;100.00
18022;BME280;9136;48.822;7.966;2023-09-19T19:30:13;100076.22;;;17.89;100.00
18022;BME280;9136;48.822;7.966;2023-09-19T19:33:03;100095.03;;;17.86;100.00
18022;BME280;9136;48.822;7.966;2023-09-19T19:35:53;100091.16;;;17.77;100.00
18022;BME280;9136;48.822;7.966;2023-09-19T19:38:53;100077.84;;;17.63;100.00
18022;BME280;9136;48.822;7.966;2023-09-19T19:41:41;100079.19;;;17.56;100.00
18022;BME280;9136;48.822;7.966;2023-09-19T19:44:30;100100.84;;;17.50;100.00
18022;BME280;9136;48.822;7.966;2023-09-19T19:47:18;100078.97;;;17.32;100.00
18022;BME280;9136;48.822;7.966;2023-09-19T19:50:07;100091.94;;;17.36;100.00
18022;BME280;9136;48.822;7.966;2023-09-19T19:52:54;100080.97;;;17.28;100.00
18022;BME280;9136;48.822;7.966;2023-09-19T19:55:44;100102.56;;;17.36;100.00
18022;BME280;9136;48.822;7.966;2023-09-19T19:58:34;100081.72;;;17.16;100.00
18022;BME280;9136;48.822;7.966;2023-09-19T20:01:22;100092.81;;;17.23;100.00
18022;BME280;9136;48.822;7.966;2023-09-19T20:04:10;100095.94;;;17.15;100.00
18022;BME280;9136;48.822;7.966;2023-09-19T20:06:59;100103.63;;;17.20;100.00
18022;BME280;9136;48.822;7.966;2023-09-19T20:09:46;100103.03;;;17.14;100.00
18022;BME280;9136;48.822;7.966;2023-09-19T20:12:36;100117.38;;;17.40;100.00
18022;BME280;9136;48.822;7.966;2023-09-19T20:15:23;100113.19;;;17.51;100.00
18022;BME280;9136;48.822;7.966;2023-09-19T20:18:12;100113.28;;;17.49;100.00
18022;BME280;9136;48.822;7.966;2023-09-19T20:21:04;100112.13;;;17.53;100.00
18022;BME280;9136;48.822;7.966;2023-09-19T20:23:56;100126.34;;;17.52;100.00
18022;BME280;9136;48.822;7.966;2023-09-19T20:26:50;100117.22;;;17.56;100.00
18022;BME280;9136;48.822;7.966;2023-09-19T20:29:42;100124.28;;;17.57;100.00
18022;BME280;9136;48.822;7.966;2023-09-19T20:32:29;100118.38;;;17.52;100.00
18022;BME280;9136;48.822;7.966;2023-09-19T20:35:17;100122.75;;;17.53;100.00
18022;BME280;9136;48.822;7.966;2023-09-19T20:38:05;100119.72;;;17.45;100.00
18022;BME280;9136;48.822;7.966;2023-09-19T20:40:53;100117.63;;;17.36;100.00
18022;BME280;9136;48.822;7.966;2023-09-19T20:43:42;100101.91;;;17.33;100.00
18022;BME280;9136;48.822;7.966;2023-09-19T20:46:31;100121.13;;;17.36;100.00
18022;BME280;9136;48.822;7.966;2023-09-19T20:49:18;100117.75;;;17.20;100.00
18022;BME280;9136;48.822;7.966;2023-09-19T20:52:06;100128.25;;;17.07;100.00
18022;BME280;9136;48.822;7.966;2023-09-19T20:54:54;100121.78;;;16.97;100.00
18022;BME280;9136;48.822;7.966;2023-09-19T20:57:42;100099.81;;;16.81;100.00
18022;BME280;9136;48.822;7.966;2023-09-19T21:00:29;100111.44;;;16.78;100.00
18022;BME280;9136;48.822;7.966;2023-09-19T21:03:19;100122.53;;;16.85;100.00
18022;BME280;9136;48.822;7.966;2023-09-19T21:06:08;100095.72;;;16.59;100.00
18022;BME280;9136;48.822;7.966;2023-09-19T21:08:57;100123.53;;;16.68;100.00
18022;BME280;9136;48.822;7.966;2023-09-19T21:11:44;100115.25;;;16.58;100.00
18022;BME280;9136;48.822;7.966;2023-09-19T21:14:32;100123.03;;;16.62;100.00
18022;BME280;9136;48.822;7.966;2023-09-19T21:17:20;100128.06;;;16.66;100.00
18022;BME280;9136;48.822;7.966;2023-09-19T21:20:12;100117.44;;;16.66;100.00
18022;BME280;9136;48.822;7.966;2023-09-19T21:23:00;100124.38;;;16.69;100.00
18022;BME280;9136;48.822;7.966;2023-09-19T21:25:53;100122.00;;;16.64;100.00
18022;BME280;9136;48.822;7.966;2023-09-19T21:28:41;100128.97;;;16.51;100.00
18022;BME280;9136;48.822;7.966;2023-09-19T21:31:30;100119.84;;;16.41;100.00
18022;BME280;9136;48.822;7.966;2023-09-19T21:34:20;100098.00;;;16.21;100.00
18022;BME280;9136;48.822;7.966;2023-09-19T21:37:09;100110.53;;;16.34;100.00
18022;BME280;9136;48.822;7.966;2023-09-19T21:40:00;100099.03;;;16.19;100.00
18022;BME280;9136;48.822;7.966;2023-09-19T21:42:50;100098.44;;;16.14;100.00
18022;BME280;9136;48.822;7.966;2023-09-19T21:45:38;100118.59;;;16.16;100.00
18022;BME280;9136;48.822;7.966;2023-09-19T21:48:25;100098.69;;;16.09;100.00
18022;BME280;9136;48.822;7.966;2023-09-19T21:51:14;100096.31;;;16.05;100.00
18022;BME280;9136;48.822;7.966;2023-09-19T21:54:03;100075.78;;;16.08;100.00
18022;BME280;9136;48.822;7.966;2023-09-19T21:56:51;100084.75;;;16.21;100.00
18022;BME280;9136;48.822;7.966;2023-09-19T21:59:39;100103.44;;;16.34;100.00
18022;BME280;9136;48.822;7.966;2023-09-19T22:02:28;100095.84;;;16.28;100.00
18022;BME280;9136;48.822;7.966;2023-09-19T22:05:23;100110.47;;;16.49;100.00
18022;BME280;9136;48.822;7.966;2023-09-19T22:08:11;100114.22;;;16.61;100.00
18022;BME280;9136;48.822;7.966;2023-09-19T22:11:01;100092.00;;;16.48;100.00
18022;BME280;9136;48.822;7.966;2023-09-19T22:13:52;100084.34;;;16.43;100.00
18022;BME280;9136;48.822;7.966;2023-09-19T22:16:41;100111.28;;;16.51;100.00
18022;BME280;9136;48.822;7.966;2023-09-19T22:19:30;100112.28;;;16.49;100.00
18022;BME280;9136;48.822;7.966;2023-09-19T22:22:17;100096.59;;;16.30;100.00
18022;BME280;9136;48.822;7.966;2023-09-19T22:25:05;100094.88;;;16.29;100.00
18022;BME280;9136;48.822;7.966;2023-09-19T22:27:56;100099.53;;;16.25;100.00
18022;BME280;9136;48.822;7.966;2023-09-19T22:30:44;100114.50;;;16.26;100.00
18022;BME280;9136;48.822;7.966;2023-09-19T22:33:33;100117.22;;;16.25;100.00
18022;BME280;9136;48.822;7.966;2023-09-19T22:36:25;100125.53;;;16.19;100.00
18022;BME280;9136;48.822;7.966;2023-09-19T22:39:18;100098.13;;;16.04;100.00
18022;BME280;9136;48.822;7.966;2023-09-19T22:42:11;100118.94;;;16.10;100.00
18022;BME280;9136;48.822;7.966;2023-09-19T22:45:00;100099.22;;;16.00;100.00
18022;BME280;9136;48.822;7.966;2023-09-19T22:47:48;100125.19;;;16.09;100.00
18022;BME280;9136;48.822;7.966;2023-09-19T22:50:36;100106.91;;;16.05;100.00
18022;BME280;9136;48.822;7.966;2023-09-19T22:53:31;100109.34;;;15.93;100.00
18022;BME280;9136;48.822;7.966;2023-09-19T22:56:23;100081.66;;;15.83;100.00
18022;BME280;9136;48.822;7.966;2023-09-19T22:59:13;100124.09;;;15.97;100.00
18022;BME280;9136;48.822;7.966;2023-09-19T23:02:03;100104.97;;;15.92;100.00